EGKB/BQH METAR and TAF weather

Enter ICAO airport designator
Station Type Date Time Source
EGKB METAR 2019/08/25 18:20 UTC NOAA

EGKB 251820Z 17005KT CAVOK 26/14 Q1019


Station Type Date Time Source
EGKB Decoded METAR 2019/08/25 18:20 UTC NOAA

Station name not available
Aug 25, 2019 - 02:20 PM EDT / 2019.08.25 1820 UTC
Wind: from the S (170 degrees) at 6 MPH (5 KT):0
Visibility: greater than 7 mile(s):0
Temperature: 78 F (26 C)
Dew Point: 57 F (14 C)
Relative Humidity: 47%
Pressure (altimeter): 30.09 in. Hg (1019 hPa)
ob: EGKB 251820Z 17005KT CAVOK 26/14 Q1019
cycle: 18

Station Type Date Time Source
EGKB TAF 2019/07/13 18:09 UTC NOAA

TAF EGKB 131706Z 1318/1422 03009KT 9999 SCT040 PROB30
TEMPO 1318/1320 8000 -SHRA

Example: see airport list